createdAt,value
2022-11-28T00:01:52.742Z,3.70
2022-11-28T00:04:19.526Z,3.70
2022-11-28T00:06:49.381Z,4.00
2022-11-28T00:09:18.549Z,3.70
2022-11-28T00:11:47.678Z,3.70
2022-11-28T00:14:16.399Z,3.60
2022-11-28T00:16:43.613Z,3.60
2022-11-28T00:19:11.392Z,3.60
2022-11-28T00:21:38.315Z,3.50
2022-11-28T00:24:06.672Z,3.50
2022-11-28T00:26:36.496Z,3.40
2022-11-28T00:29:04.193Z,3.30
2022-11-28T00:31:34.223Z,3.20
2022-11-28T00:34:04.814Z,3.10
2022-11-28T00:36:31.898Z,3.10
2022-11-28T00:38:58.701Z,3.10
2022-11-28T00:41:29.167Z,3.10
2022-11-28T00:43:56.996Z,3.00
2022-11-28T00:46:24.953Z,3.20
2022-11-28T00:48:52.282Z,2.90
2022-11-28T00:51:22.313Z,2.90
2022-11-28T00:53:51.764Z,2.90
2022-11-28T00:56:23.075Z,2.90
2022-11-28T00:58:50.399Z,2.90
2022-11-28T01:01:19.792Z,3.40
2022-11-28T01:03:47.830Z,2.70
2022-11-28T01:06:21.941Z,2.70
2022-11-28T01:08:48.866Z,2.50
2022-11-28T01:11:15.725Z,2.70
2022-11-28T01:13:42.568Z,2.60
2022-11-28T01:16:09.738Z,2.70
2022-11-28T01:18:38.304Z,2.80
2022-11-28T01:21:06.976Z,2.70
2022-11-28T01:23:34.402Z,2.70
2022-11-28T01:26:03.224Z,2.70
2022-11-28T01:28:30.079Z,2.70
2022-11-28T01:30:56.899Z,2.80
2022-11-28T01:33:23.673Z,2.70
2022-11-28T01:35:58.255Z,2.70
2022-11-28T01:38:25.926Z,2.70
2022-11-28T01:40:54.607Z,2.60
2022-11-28T01:43:23.093Z,3.00
2022-11-28T01:45:50.984Z,2.90
2022-11-28T01:48:30.633Z,2.60
2022-11-28T01:51:01.032Z,2.80
2022-11-28T01:53:32.124Z,2.70
2022-11-28T01:56:21.294Z,2.60
2022-11-28T01:58:53.045Z,2.60
2022-11-28T02:01:21.805Z,2.80
2022-11-28T02:03:50.643Z,2.50
2022-11-28T02:06:20.799Z,2.60
2022-11-28T02:08:53.811Z,2.70
2022-11-28T02:11:45.714Z,2.60
2022-11-28T02:14:20.736Z,2.60
2022-11-28T02:17:25.345Z,2.60
2022-11-28T02:20:25.265Z,2.60
2022-11-28T02:23:15.739Z,2.50
2022-11-28T02:26:10.981Z,2.40
2022-11-28T02:28:54.400Z,2.40
2022-11-28T02:31:39.590Z,2.40
2022-11-28T02:34:46.903Z,2.40
2022-11-28T02:37:54.430Z,2.50
2022-11-28T02:40:56.511Z,2.40
2022-11-28T02:43:44.323Z,2.50
2022-11-28T02:46:24.237Z,2.60
2022-11-28T02:49:07.359Z,2.60
2022-11-28T02:51:46.155Z,2.60
2022-11-28T02:54:16.065Z,2.70
2022-11-28T02:56:51.383Z,2.80
2022-11-28T02:59:38.370Z,2.60
2022-11-28T03:02:33.058Z,2.70
2022-11-28T03:05:23.443Z,2.70
2022-11-28T03:08:23.234Z,2.70
2022-11-28T03:11:15.394Z,2.70
2022-11-28T03:13:52.665Z,2.70
2022-11-28T03:16:43.186Z,2.60
2022-11-28T03:19:31.288Z,2.60
2022-11-28T03:22:07.072Z,2.60
2022-11-28T03:24:55.563Z,2.60
2022-11-28T03:27:33.890Z,2.60
2022-11-28T03:30:17.868Z,2.50
2022-11-28T03:32:49.604Z,2.60
2022-11-28T03:35:20.487Z,2.90
2022-11-28T03:38:10.702Z,2.70
2022-11-28T03:40:43.363Z,2.60
2022-11-28T03:43:20.524Z,2.60
2022-11-28T03:45:50.848Z,3.00
2022-11-28T03:48:24.798Z,2.80
2022-11-28T03:51:03.353Z,2.80
2022-11-28T03:53:38.258Z,2.80
2022-11-28T03:56:14.832Z,2.90
2022-11-28T03:58:54.782Z,2.90
2022-11-28T04:01:34.494Z,3.00
2022-11-28T04:04:34.971Z,3.00
2022-11-28T04:07:23.463Z,2.90
2022-11-28T04:10:13.273Z,2.80
2022-11-28T04:13:07.849Z,2.70
2022-11-28T04:15:45.826Z,2.80
2022-11-28T04:18:27.465Z,2.90
2022-11-28T04:21:03.971Z,2.80
2022-11-28T04:23:33.488Z,2.90
2022-11-28T04:26:18.916Z,2.90
2022-11-28T04:28:48.478Z,3.30
2022-11-28T04:31:18.029Z,2.90
2022-11-28T04:33:50.717Z,3.00
2022-11-28T04:36:20.372Z,3.00
2022-11-28T04:38:56.198Z,3.00
2022-11-28T04:41:33.050Z,3.00
2022-11-28T04:44:08.958Z,3.00
2022-11-28T04:46:43.680Z,3.10
2022-11-28T04:49:11.495Z,3.20
2022-11-28T04:51:59.700Z,3.10
2022-11-28T04:54:46.550Z,3.20
2022-11-28T04:57:19.091Z,3.10
2022-11-28T04:59:47.325Z,3.20
2022-11-28T05:02:15.979Z,3.50
2022-11-28T05:04:44.776Z,3.50
2022-11-28T05:07:11.792Z,3.50
2022-11-28T05:09:39.009Z,3.60
2022-11-28T05:12:06.627Z,3.90
2022-11-28T05:14:33.800Z,3.60
2022-11-28T05:17:00.586Z,3.50
2022-11-28T05:19:27.371Z,3.60
2022-11-28T05:21:54.667Z,3.50
2022-11-28T05:24:22.582Z,3.40
2022-11-28T05:26:50.280Z,3.30
2022-11-28T05:29:17.346Z,3.20
2022-11-28T05:31:44.413Z,3.20
2022-11-28T05:34:11.306Z,3.10
2022-11-28T05:36:38.099Z,3.20
2022-11-28T05:39:05.650Z,3.20
2022-11-28T05:41:33.765Z,3.20
2022-11-28T05:44:01.278Z,3.30
2022-11-28T05:46:28.902Z,3.30
2022-11-28T05:48:56.458Z,3.20
2022-11-28T05:51:23.366Z,3.20
2022-11-28T05:53:50.909Z,3.20
2022-11-28T05:56:20.688Z,3.40
2022-11-28T05:58:47.480Z,3.40
2022-11-28T06:01:15.648Z,3.00
2022-11-28T06:03:42.903Z,3.10
2022-11-28T06:06:22.275Z,4.30
2022-11-28T06:08:56.361Z,3.20
2022-11-28T06:11:27.532Z,3.10
2022-11-28T06:14:00.439Z,3.10
2022-11-28T06:19:18.698Z,3.00
2022-11-28T06:21:45.836Z,3.00
2022-11-28T06:24:14.178Z,3.00
2022-11-28T06:26:41.431Z,3.10
2022-11-28T06:29:08.761Z,3.00
2022-11-28T06:31:36.286Z,3.30
2022-11-28T06:34:03.217Z,2.90
2022-11-28T06:36:31.505Z,3.30
2022-11-28T06:38:58.811Z,3.00
2022-11-28T06:41:25.610Z,3.20
2022-11-28T06:43:52.861Z,3.10
2022-11-28T06:46:21.816Z,3.10
2022-11-28T06:48:51.455Z,3.40
2022-11-28T06:51:20.460Z,3.10
2022-11-28T06:53:47.340Z,3.00
2022-11-28T06:56:17.365Z,2.90
2022-11-28T06:58:44.862Z,2.90
2022-11-28T07:01:17.365Z,2.90
2022-11-28T07:03:44.990Z,3.20
2022-11-28T07:06:13.737Z,3.20
2022-11-28T07:08:40.625Z,3.00
2022-11-28T07:11:09.850Z,3.00
2022-11-28T07:13:36.732Z,3.00
2022-11-28T07:16:04.138Z,3.20
2022-11-28T07:18:30.983Z,3.10
2022-11-28T07:20:58.980Z,3.30
2022-11-28T07:23:26.256Z,3.20
2022-11-28T07:26:02.063Z,3.20
2022-11-28T07:28:31.363Z,3.10
2022-11-28T07:31:04.025Z,3.00
2022-11-28T07:33:31.241Z,3.00
2022-11-28T07:36:03.094Z,3.10
2022-11-28T07:38:29.943Z,3.30
2022-11-28T07:41:06.887Z,3.30
2022-11-28T07:43:34.702Z,3.40
2022-11-28T07:46:06.082Z,3.30
2022-11-28T07:48:33.602Z,3.20
2022-11-28T07:51:00.892Z,3.10
2022-11-28T07:53:27.819Z,3.20
2022-11-28T07:55:54.585Z,3.40
2022-11-28T07:58:22.210Z,3.20
2022-11-28T08:00:49.123Z,3.40
2022-11-28T08:03:15.963Z,4.10
2022-11-28T08:05:50.377Z,3.70
2022-11-28T08:08:17.894Z,3.90
2022-11-28T08:10:45.525Z,4.00
2022-11-28T08:13:13.791Z,4.10
2022-11-28T08:15:41.127Z,4.10
2022-11-28T08:18:08.354Z,4.00
2022-11-28T08:20:36.249Z,3.90
2022-11-28T08:23:03.468Z,3.80
2022-11-28T08:25:31.426Z,3.70
2022-11-28T08:27:58.677Z,3.90
2022-11-28T08:30:25.633Z,3.80
2022-11-28T08:32:52.570Z,3.70
2022-11-28T08:35:19.739Z,3.80
2022-11-28T08:37:46.543Z,4.00
2022-11-28T08:40:15.441Z,3.90
2022-11-28T08:42:42.669Z,3.90
2022-11-28T08:45:11.755Z,4.00
2022-11-28T08:47:39.246Z,4.10
2022-11-28T08:50:06.960Z,4.20
2022-11-28T08:52:33.781Z,4.20
2022-11-28T08:55:00.558Z,4.00
2022-11-28T08:57:27.449Z,4.00
2022-11-28T08:59:54.227Z,4.00
2022-11-28T09:02:25.804Z,4.00
2022-11-28T09:04:52.986Z,4.10
2022-11-28T09:07:19.967Z,4.20
2022-11-28T09:09:46.923Z,4.20
2022-11-28T09:12:13.843Z,4.10
2022-11-28T09:14:40.696Z,4.00
2022-11-28T09:17:09.190Z,4.10
2022-11-28T09:19:36.016Z,4.30
2022-11-28T09:22:03.210Z,4.50
2022-11-28T09:24:30.014Z,4.60
2022-11-28T09:26:57.331Z,4.50
2022-11-28T09:29:24.183Z,4.40
2022-11-28T09:31:51.338Z,4.30
2022-11-28T09:34:18.100Z,4.30
2022-11-28T09:36:45.463Z,4.80
2022-11-28T09:39:12.713Z,4.50
2022-11-28T09:41:50.027Z,4.60
2022-11-28T09:44:24.319Z,4.40
2022-11-28T09:46:54.910Z,4.80
2022-11-28T09:49:36.747Z,4.80
2022-11-28T09:52:13.249Z,5.00
2022-11-28T09:55:00.260Z,5.00
2022-11-28T09:57:35.755Z,5.00
2022-11-28T10:00:04.196Z,5.10
2022-11-28T10:02:39.324Z,5.00
2022-11-28T10:05:25.872Z,5.00
2022-11-28T10:08:03.430Z,5.10
2022-11-28T10:11:15.800Z,5.10
2022-11-28T10:14:14.466Z,5.10
2022-11-28T10:17:18.820Z,5.10
2022-11-28T10:20:19.717Z,5.00
2022-11-28T10:22:52.375Z,4.90
2022-11-28T10:25:40.565Z,4.90
2022-11-28T10:28:14.607Z,4.80
2022-11-28T10:30:46.439Z,4.70
2022-11-28T10:33:24.679Z,4.80
2022-11-28T10:35:56.290Z,4.80
2022-11-28T10:38:27.464Z,4.80
2022-11-28T10:41:18.852Z,5.50
2022-11-28T10:44:29.674Z,5.00
2022-11-28T10:47:17.879Z,5.10
2022-11-28T10:50:15.281Z,5.20
2022-11-28T10:52:50.680Z,5.20
2022-11-28T10:55:31.049Z,5.30
2022-11-28T10:58:00.945Z,5.20
2022-11-28T11:00:27.781Z,5.80
2022-11-28T11:02:57.073Z,5.40
2022-11-28T11:05:28.488Z,5.40
2022-11-28T11:08:04.110Z,5.40
2022-11-28T11:10:43.111Z,5.50
2022-11-28T11:13:30.059Z,5.60
2022-11-28T11:16:07.140Z,5.70
2022-11-28T11:18:41.791Z,5.80
2022-11-28T11:21:15.205Z,5.90
2022-11-28T11:23:43.037Z,6.00
2022-11-28T11:26:22.770Z,6.00
2022-11-28T11:28:51.046Z,6.00
2022-11-28T11:31:30.450Z,6.20
2022-11-28T11:34:18.063Z,6.00
2022-11-28T11:36:45.142Z,6.10
2022-11-28T11:39:12.442Z,6.50
2022-11-28T11:41:45.461Z,6.20
2022-11-28T11:44:15.208Z,6.20
2022-11-28T11:47:00.767Z,6.10
2022-11-28T11:49:44.726Z,6.20
2022-11-28T11:52:28.012Z,6.10
2022-11-28T11:54:58.191Z,6.00
2022-11-28T11:57:39.485Z,6.20
2022-11-28T12:00:34.031Z,6.10
2022-11-28T12:03:08.027Z,6.20
2022-11-28T12:06:12.121Z,6.10
2022-11-28T12:08:36.970Z,6.00
2022-11-28T12:11:35.086Z,6.10
2022-11-28T12:14:19.593Z,5.90
2022-11-28T12:17:25.602Z,5.80
2022-11-28T12:20:10.147Z,6.00
2022-11-28T12:22:48.889Z,5.80
2022-11-28T12:25:47.457Z,5.80
2022-11-28T12:28:50.548Z,5.60
2022-11-28T12:31:42.431Z,5.50
2022-11-28T12:34:15.600Z,5.40
2022-11-28T12:36:56.676Z,5.40
2022-11-28T12:39:39.139Z,5.40
2022-11-28T12:42:25.121Z,5.30
2022-11-28T12:45:28.615Z,5.20
2022-11-28T12:48:03.166Z,5.30
2022-11-28T12:50:48.448Z,5.30
2022-11-28T12:53:33.067Z,5.30
2022-11-28T12:56:27.033Z,5.30
2022-11-28T12:59:35.232Z,5.10
2022-11-28T13:02:46.787Z,5.00
2022-11-28T13:05:43.106Z,5.10
2022-11-28T13:08:21.826Z,5.10
2022-11-28T13:11:06.446Z,5.00
2022-11-28T13:13:40.427Z,4.90
2022-11-28T13:16:30.586Z,5.00
2022-11-28T13:19:21.368Z,5.00
2022-11-28T13:22:12.402Z,5.00
2022-11-28T13:25:11.092Z,4.90
2022-11-28T13:27:52.934Z,4.90
2022-11-28T13:30:28.882Z,4.90
2022-11-28T13:33:14.482Z,4.90
2022-11-28T13:35:44.328Z,4.80
2022-11-28T13:38:45.967Z,5.60
2022-11-28T13:41:43.020Z,5.00
2022-11-28T13:44:16.815Z,4.90
2022-11-28T13:46:47.230Z,4.90
2022-11-28T13:49:27.244Z,4.80
2022-11-28T13:52:31.696Z,4.70
2022-11-28T13:54:58.915Z,4.80
2022-11-28T13:57:37.000Z,4.70
2022-11-28T14:00:19.533Z,4.60
2022-11-28T14:02:56.875Z,4.70
2022-11-28T14:05:41.584Z,4.70
2022-11-28T14:08:23.241Z,4.60
2022-11-28T14:11:00.777Z,5.00
2022-11-28T14:13:53.406Z,4.50
2022-11-28T14:16:34.049Z,4.50
2022-11-28T14:19:12.739Z,4.60
2022-11-28T14:21:56.492Z,4.50
2022-11-28T14:24:47.074Z,4.50
2022-11-28T14:27:29.429Z,4.50
2022-11-28T14:29:57.931Z,4.40
2022-11-28T14:32:35.577Z,4.30
2022-11-28T14:35:04.206Z,4.30
2022-11-28T14:37:35.971Z,4.30
2022-11-28T14:40:04.227Z,4.40
2022-11-28T14:43:03.878Z,4.30
2022-11-28T14:45:29.730Z,4.20
2022-11-28T14:48:24.613Z,4.10
2022-11-28T14:51:00.921Z,4.20
2022-11-28T14:53:53.420Z,4.20
2022-11-28T14:56:24.558Z,4.20
2022-11-28T14:58:56.056Z,4.20
2022-11-28T15:01:46.303Z,4.10
2022-11-28T15:04:49.247Z,4.00
2022-11-28T15:07:21.837Z,3.90
2022-11-28T15:10:09.234Z,4.10
2022-11-28T15:12:51.955Z,4.00
2022-11-28T15:15:23.095Z,3.90
2022-11-28T15:17:52.574Z,4.60
2022-11-28T15:20:44.058Z,3.80
2022-11-28T15:23:30.146Z,4.00
2022-11-28T15:25:58.884Z,4.00
2022-11-28T15:28:28.665Z,4.10
2022-11-28T15:30:58.075Z,4.60
2022-11-28T15:33:26.757Z,4.20
2022-11-28T15:36:16.043Z,4.30
2022-11-28T15:38:45.364Z,4.40
2022-11-28T15:41:12.445Z,4.40
2022-11-28T15:43:44.352Z,4.80
2022-11-28T15:46:19.287Z,4.50
2022-11-28T15:48:55.998Z,4.50
2022-11-28T15:51:35.120Z,4.60
2022-11-28T15:54:05.312Z,4.60
2022-11-28T15:56:34.807Z,4.80
2022-11-28T15:59:01.602Z,4.80
2022-11-28T16:01:29.030Z,4.70
2022-11-28T16:04:07.247Z,5.50
2022-11-28T16:06:39.363Z,4.80
2022-11-28T16:09:12.477Z,5.00
2022-11-28T16:11:49.132Z,4.80
2022-11-28T16:14:25.284Z,4.80
2022-11-28T16:16:52.839Z,4.70
2022-11-28T16:19:33.024Z,4.60
2022-11-28T16:22:08.375Z,4.70
2022-11-28T16:24:51.616Z,4.80
2022-11-28T16:27:42.949Z,5.00
2022-11-28T16:30:39.435Z,4.90
2022-11-28T16:33:36.136Z,4.80
2022-11-28T16:36:16.034Z,4.90
2022-11-28T16:38:45.094Z,4.90
2022-11-28T16:41:18.064Z,5.10
2022-11-28T16:43:50.396Z,5.30
2022-11-28T16:46:24.528Z,4.90
2022-11-28T16:48:59.870Z,4.80
2022-11-28T16:51:26.628Z,4.80
2022-11-28T16:54:00.670Z,4.90
2022-11-28T16:56:30.882Z,5.00
2022-11-28T16:59:17.118Z,4.70
2022-11-28T17:01:51.722Z,4.80
2022-11-28T17:04:28.712Z,4.80
2022-11-28T17:06:58.676Z,4.70
2022-11-28T17:09:25.445Z,4.70
2022-11-28T17:11:59.962Z,4.70
2022-11-28T17:14:28.382Z,4.70
2022-11-28T17:16:55.137Z,4.80
2022-11-28T17:19:22.039Z,4.80
2022-11-28T17:21:56.380Z,4.70
2022-11-28T17:24:30.893Z,4.60
2022-11-28T17:26:57.667Z,4.60
2022-11-28T17:29:28.640Z,5.30
2022-11-28T17:31:59.027Z,4.60
2022-11-28T17:34:28.253Z,4.60
2022-11-28T17:36:55.193Z,4.60
2022-11-28T17:39:22.389Z,4.60
2022-11-28T17:41:50.045Z,4.60
2022-11-28T17:44:27.304Z,4.60
2022-11-28T17:46:58.317Z,4.60
2022-11-28T17:49:25.210Z,4.70
2022-11-28T17:51:52.672Z,4.80
2022-11-28T17:54:21.878Z,5.00
2022-11-28T17:56:51.930Z,4.70
2022-11-28T17:59:21.381Z,4.50
2022-11-28T18:01:48.697Z,4.50
2022-11-28T18:04:16.472Z,4.50
2022-11-28T18:06:44.646Z,4.50
2022-11-28T18:09:12.781Z,4.60
2022-11-28T18:11:40.927Z,4.60
2022-11-28T18:14:08.170Z,4.60
2022-11-28T18:16:36.298Z,4.60
2022-11-28T18:19:04.259Z,4.60
2022-11-28T18:21:32.089Z,4.50
2022-11-28T18:23:59.525Z,4.50
2022-11-28T18:26:27.083Z,4.90
2022-11-28T18:28:57.630Z,4.60
2022-11-28T18:31:27.086Z,4.50
2022-11-28T18:33:58.912Z,4.80
2022-11-28T18:36:27.904Z,4.50
2022-11-28T18:39:00.390Z,4.50
2022-11-28T18:41:28.480Z,4.80
2022-11-28T18:43:56.600Z,4.30
2022-11-28T18:46:24.108Z,4.20
2022-11-28T18:49:00.658Z,4.10
2022-11-28T18:51:34.985Z,4.80
2022-11-28T18:54:06.656Z,4.00
2022-11-28T18:56:35.943Z,4.10
2022-11-28T18:59:04.166Z,4.00
2022-11-28T19:01:34.167Z,3.90
2022-11-28T19:04:03.913Z,3.90
2022-11-28T19:06:34.600Z,4.00
2022-11-28T19:09:03.377Z,4.40
2022-11-28T19:11:30.749Z,3.80
2022-11-28T19:13:58.392Z,3.80
2022-11-28T19:16:29.446Z,3.80
2022-11-28T19:18:56.776Z,3.80
2022-11-28T19:21:29.920Z,4.00
2022-11-28T19:23:58.960Z,3.90
2022-11-28T19:26:27.748Z,4.00
2022-11-28T19:28:56.163Z,4.00
2022-11-28T19:31:29.221Z,4.00
2022-11-28T19:34:01.353Z,4.10
2022-11-28T19:36:34.190Z,4.10
2022-11-28T19:39:01.504Z,4.10
2022-11-28T19:41:29.643Z,4.70
2022-11-28T19:43:57.241Z,4.10
2022-11-28T19:46:25.719Z,3.90
2022-11-28T19:48:54.003Z,3.90
2022-11-28T19:51:21.593Z,3.80
2022-11-28T19:53:48.573Z,3.90
2022-11-28T19:56:18.369Z,3.90
2022-11-28T19:58:46.074Z,3.90
2022-11-28T20:01:21.613Z,3.90
2022-11-28T20:03:49.283Z,3.90
2022-11-28T20:06:20.046Z,3.90
2022-11-28T20:08:49.149Z,3.90
2022-11-28T20:11:19.115Z,4.10
2022-11-28T20:13:46.749Z,3.90
2022-11-28T20:16:16.945Z,3.90
2022-11-28T20:18:44.928Z,3.90
2022-11-28T20:21:17.953Z,3.90
2022-11-28T20:23:54.089Z,3.90
2022-11-28T20:26:24.819Z,3.60
2022-11-28T20:28:51.797Z,3.60
2022-11-28T20:31:19.069Z,3.60
2022-11-28T20:33:46.035Z,3.60
2022-11-28T20:36:17.528Z,3.60
2022-11-28T20:38:44.794Z,3.60
2022-11-28T20:41:13.696Z,3.50
2022-11-28T20:43:41.889Z,3.40
2022-11-28T20:46:09.896Z,3.50
2022-11-28T20:48:38.091Z,3.40
2022-11-28T20:51:09.699Z,3.50
2022-11-28T20:53:39.389Z,3.40
2022-11-28T20:56:08.781Z,3.40
2022-11-28T20:58:35.666Z,3.40
2022-11-28T21:01:04.086Z,3.70
2022-11-28T21:03:31.523Z,3.50
2022-11-28T21:06:01.263Z,3.70
2022-11-28T21:08:35.448Z,4.20
2022-11-28T21:11:30.513Z,4.40
2022-11-28T21:14:06.236Z,3.30
2022-11-28T21:16:38.779Z,3.60
2022-11-28T21:21:50.066Z,3.70
2022-11-28T21:24:16.941Z,3.50
2022-11-28T21:26:49.644Z,3.60
2022-11-28T21:29:20.945Z,3.60
2022-11-28T21:31:48.423Z,3.50
2022-11-28T21:34:16.766Z,3.60
2022-11-28T21:36:44.903Z,3.70
2022-11-28T21:39:20.347Z,4.20
2022-11-28T21:41:48.505Z,3.60
2022-11-28T21:44:15.491Z,3.50
2022-11-28T21:46:42.390Z,3.60
2022-11-28T21:49:09.896Z,3.80
2022-11-28T21:51:37.104Z,3.50
2022-11-28T21:54:04.539Z,3.50
2022-11-28T21:56:32.229Z,3.50
2022-11-28T22:01:57.143Z,3.50
2022-11-28T22:04:29.766Z,3.70
2022-11-28T22:06:58.020Z,3.60
2022-11-28T22:09:27.242Z,3.60
2022-11-28T22:11:57.107Z,4.00
2022-11-28T22:14:38.645Z,3.60
2022-11-28T22:17:07.120Z,3.60
2022-11-28T22:19:35.922Z,4.20
2022-11-28T22:22:05.830Z,3.50
2022-11-28T22:24:32.760Z,3.50
2022-11-28T22:27:01.334Z,3.90
2022-11-28T22:29:29.183Z,3.50
2022-11-28T22:31:59.650Z,3.50
2022-11-28T22:34:34.643Z,4.00
2022-11-28T22:37:05.294Z,3.40
2022-11-28T22:39:32.955Z,3.40
2022-11-28T22:42:00.443Z,3.20
2022-11-28T22:44:27.471Z,3.30
2022-11-28T22:46:54.330Z,3.60
2022-11-28T22:49:21.258Z,3.40
2022-11-28T22:51:48.079Z,3.40
2022-11-28T22:54:15.026Z,3.40
2022-11-28T22:56:42.523Z,3.40
2022-11-28T22:59:14.257Z,3.40
2022-11-28T23:01:42.653Z,3.40
2022-11-28T23:04:09.957Z,3.40
2022-11-28T23:06:37.214Z,3.40
2022-11-28T23:09:07.405Z,3.40
2022-11-28T23:11:36.766Z,3.30
2022-11-28T23:14:04.959Z,3.30
2022-11-28T23:16:36.190Z,3.30
2022-11-28T23:19:06.301Z,3.20
2022-11-28T23:21:36.253Z,3.50
2022-11-28T23:24:03.221Z,3.30
2022-11-28T23:26:31.254Z,3.40
2022-11-28T23:29:02.678Z,3.40
2022-11-28T23:31:32.452Z,3.50
2022-11-28T23:34:00.883Z,3.60
2022-11-28T23:36:30.380Z,3.40
2022-11-28T23:38:59.971Z,3.50
2022-11-28T23:41:28.597Z,3.50
2022-11-28T23:43:57.261Z,3.60
2022-11-28T23:46:25.539Z,3.50
2022-11-28T23:48:52.405Z,3.60
2022-11-28T23:51:22.088Z,3.60
2022-11-28T23:53:50.108Z,3.40
2022-11-28T23:56:19.999Z,3.40
2022-11-28T23:58:47.183Z,3.40
